Time;durP1;ratioP1;P1;durP2;ratioP2;P2;SDS_P1;SDS_P2;PMS_P1;PMS_P2;Temp;Humidity;BMP_temperature;BMP_pressure;BME280_temperature;BME280_humidity;BME280_pressure;Samples;Min_cycle;Max_cycle;Signal;HPM_P1;HPM_P2
2021/06/15 00:01:30;;;;;;;7.35;6.57;;;17.40;99.90;;;;;;5086369;28;20147;-81
2021/06/15 00:03:56;;;;;;;12.50;8.07;;;17.50;99.90;;;;;;5086301;28;20024;-81
2021/06/15 00:06:22;;;;;;;10.35;7.10;;;17.40;99.90;;;;;;5084755;28;20135;-82
2021/06/15 00:08:47;;;;;;;10.38;6.82;;;17.40;99.90;;;;;;5085691;28;20059;-80
2021/06/15 00:11:13;;;;;;;11.38;5.60;;;17.40;99.90;;;;;;5086001;28;20039;-81
2021/06/15 00:13:39;;;;;;;10.73;7.07;;;17.30;99.90;;;;;;5068000;28;20040;-81
2021/06/15 00:16:05;;;;;;;7.75;5.45;;;17.30;99.90;;;;;;5085752;28;20029;-81
2021/06/15 00:18:33;;;;;;;9.68;7.05;;;17.30;99.90;;;;;;5084477;28;20047;-82
2021/06/15 00:20:59;;;;;;;11.60;6.97;;;17.20;99.90;;;;;;5085865;28;20031;-82
2021/06/15 00:23:24;;;;;;;6.50;5.28;;;17.20;99.90;;;;;;5084500;28;20044;-81
2021/06/15 00:25:50;;;;;;;8.25;5.80;;;17.20;99.90;;;;;;5084520;28;20031;-82
2021/06/15 00:28:15;;;;;;;9.95;7.70;;;17.20;99.90;;;;;;5085513;28;20033;-80
2021/06/15 00:30:41;;;;;;;12.40;7.60;;;17.10;99.90;;;;;;5084411;28;20029;-81
2021/06/15 00:33:07;;;;;;;9.85;5.25;;;17.10;99.90;;;;;;5085714;28;20033;-81
2021/06/15 00:35:33;;;;;;;9.52;5.85;;;17.10;99.90;;;;;;5085652;28;20025;-82
2021/06/15 00:37:58;;;;;;;7.20;4.95;;;17.10;99.90;;;;;;5067523;28;20036;-82
2021/06/15 00:40:24;;;;;;;6.95;5.45;;;17.00;99.90;;;;;;5085767;28;20039;-82
2021/06/15 00:42:53;;;;;;;8.15;5.53;;;16.90;99.90;;;;;;5084403;28;20029;-82
2021/06/15 00:45:42;;;;;;;9.73;6.47;;;16.90;99.90;;;;;;5083912;28;20074;-82
2021/06/15 00:48:26;;;;;;;11.93;8.00;;;16.90;99.90;;;;;;5026127;28;20038;-81
2021/06/15 00:50:52;;;;;;;10.00;7.28;;;16.80;99.90;;;;;;5026316;28;20026;-81
2021/06/15 00:53:18;;;;;;;9.98;6.90;;;16.80;99.90;;;;;;5026547;28;20041;-80
2021/06/15 00:55:44;;;;;;;10.20;6.60;;;16.80;99.90;;;;;;5026583;28;20039;-80
2021/06/15 00:58:10;;;;;;;11.18;7.30;;;16.80;99.90;;;;;;5026358;28;20045;-81
2021/06/15 01:00:36;;;;;;;12.18;7.75;;;16.70;99.90;;;;;;5010010;28;20067;-80
2021/06/15 01:03:01;;;;;;;6.22;4.90;;;16.70;99.90;;;;;;5006869;28;20037;-79
2021/06/15 01:05:27;;;;;;;8.25;5.38;;;16.70;99.90;;;;;;4990456;28;20042;-81
2021/06/15 01:08:16;;;;;;;10.88;6.15;;;16.70;99.90;;;;;;5006613;28;20038;-80
2021/06/15 01:11:19;;;;;;;6.32;5.03;;;16.70;99.90;;;;;;5023107;28;20056;-80
2021/06/15 01:14:01;;;;;;;9.85;5.88;;;16.70;99.90;;;;;;5023163;28;20037;-82
2021/06/15 01:16:41;;;;;;;6.47;4.70;;;16.60;99.90;;;;;;4990152;28;20122;-82
2021/06/15 01:19:31;;;;;;;8.20;5.07;;;16.60;99.90;;;;;;4990258;28;20042;-80
2021/06/15 01:22:08;;;;;;;9.80;5.47;;;16.60;99.90;;;;;;5023147;28;20034;-80
2021/06/15 01:24:57;;;;;;;6.38;4.13;;;16.60;99.90;;;;;;5035379;28;20033;-81
2021/06/15 01:27:50;;;;;;;8.32;4.72;;;16.60;99.90;;;;;;5080536;28;20029;-80
2021/06/15 01:30:19;;;;;;;6.03;3.35;;;16.50;99.90;;;;;;5080558;28;20033;-80
2021/06/15 01:33:02;;;;;;;6.63;3.25;;;16.50;99.90;;;;;;5065108;28;20049;-80
2021/06/15 01:35:30;;;;;;;7.10;4.20;;;16.50;99.90;;;;;;5065069;28;20048;-80
2021/06/15 01:38:03;;;;;;;10.10;4.68;;;16.50;99.90;;;;;;5080339;28;20029;-82
2021/06/15 01:40:40;;;;;;;8.52;4.00;;;16.40;99.90;;;;;;5065022;28;20033;-82
2021/06/15 01:43:18;;;;;;;7.07;3.45;;;16.50;99.90;;;;;;5064135;28;20108;-80
2021/06/15 01:45:50;;;;;;;6.30;3.72;;;16.50;99.90;;;;;;5063740;28;20063;-82
2021/06/15 01:48:41;;;;;;;7.10;3.90;;;16.40;99.90;;;;;;5080081;28;20051;-81
2021/06/15 01:51:10;;;;;;;4.93;2.78;;;16.40;99.90;;;;;;5063685;28;20096;-80
2021/06/15 01:53:42;;;;;;;7.13;5.07;;;16.30;99.90;;;;;;5063852;28;20051;-81
2021/06/15 01:56:13;;;;;;;4.45;3.40;;;16.30;99.90;;;;;;5063596;28;20033;-81
2021/06/15 01:58:45;;;;;;;5.57;4.25;;;16.30;99.90;;;;;;5080251;28;20029;-81
2021/06/15 02:01:12;;;;;;;5.60;3.65;;;16.30;99.90;;;;;;5080783;28;20033;-81
2021/06/15 02:03:45;;;;;;;9.32;5.32;;;16.30;99.90;;;;;;5071028;28;20028;-81
2021/06/15 02:06:19;;;;;;;7.78;3.83;;;16.20;99.90;;;;;;5087412;28;20040;-81
2021/06/15 02:08:47;;;;;;;4.75;3.03;;;16.20;99.90;;;;;;5087080;28;20067;-80
2021/06/15 02:11:33;;;;;;;4.53;3.65;;;16.20;99.90;;;;;;5087346;28;20059;-81
2021/06/15 02:14:23;;;;;;;7.38;4.32;;;16.20;99.90;;;;;;5087476;28;20035;-81
2021/06/15 02:17:30;;;;;;;8.55;4.55;;;16.10;99.90;;;;;;5045334;28;20044;-80
2021/06/15 02:20:04;;;;;;;10.00;5.93;;;16.10;99.90;;;;;;5013872;28;20129;-81
2021/06/15 02:22:31;;;;;;;7.28;3.70;;;16.10;99.90;;;;;;5058847;28;20040;-80
2021/06/15 02:24:59;;;;;;;7.55;3.95;;;16.10;99.90;;;;;;5088106;28;20025;-81
2021/06/15 02:27:26;;;;;;;6.07;3.80;;;16.10;99.90;;;;;;5086552;28;20032;-81
2021/06/15 02:29:54;;;;;;;6.47;4.25;;;16.00;99.90;;;;;;5088186;28;20021;-81
2021/06/15 02:32:30;;;;;;;8.90;4.68;;;16.00;99.90;;;;;;5070101;28;20025;-81
2021/06/15 02:34:58;;;;;;;8.45;5.20;;;15.90;99.90;;;;;;5086721;28;20078;-80
2021/06/15 02:37:29;;;;;;;8.27;5.75;;;15.90;99.90;;;;;;5086336;28;20096;-81
2021/06/15 02:39:57;;;;;;;6.95;4.50;;;15.80;99.90;;;;;;5069984;28;20029;-80
2021/06/15 02:42:25;;;;;;;8.45;5.35;;;15.90;99.90;;;;;;5069932;28;20056;-80
2021/06/15 02:44:56;;;;;;;5.70;3.90;;;15.90;99.90;;;;;;5069872;28;20035;-80
2021/06/15 02:47:22;;;;;;;7.25;4.25;;;15.90;99.90;;;;;;5085854;28;20048;-81
2021/06/15 02:49:53;;;;;;;6.45;4.30;;;15.90;99.90;;;;;;5086265;28;20395;-80
2021/06/15 02:52:37;;;;;;;6.93;3.38;;;15.90;99.90;;;;;;5069584;28;20045;-81
2021/06/15 02:55:09;;;;;;;7.97;3.40;;;15.90;99.90;;;;;;5086170;28;20032;-81
2021/06/15 02:57:35;;;;;;;5.70;3.65;;;15.90;99.90;;;;;;5069247;28;20415;-82
2021/06/15 03:00:06;;;;;;;5.57;3.83;;;15.90;99.90;;;;;;5086191;28;20059;-80
2021/06/15 03:02:31;;;;;;;8.60;4.53;;;15.90;99.90;;;;;;5085995;28;20124;-81
2021/06/15 03:04:57;;;;;;;5.65;4.85;;;15.80;99.90;;;;;;5069290;28;20025;-81
2021/06/15 03:07:24;;;;;;;8.00;4.38;;;15.80;99.90;;;;;;5086927;28;20025;-81
2021/06/15 03:09:53;;;;;;;7.03;3.17;;;15.90;99.90;;;;;;5085884;28;20029;-81
2021/06/15 03:12:25;;;;;;;6.28;4.13;;;16.00;99.90;;;;;;5069900;28;20029;-81
2021/06/15 03:15:25;;;;;;;5.63;3.03;;;15.90;99.90;;;;;;5069567;28;20100;-81
2021/06/15 03:18:19;;;;;;;5.25;4.40;;;16.00;99.90;;;;;;5084359;28;20115;-81
2021/06/15 03:20:48;;;;;;;8.52;4.53;;;15.90;99.90;;;;;;5085657;28;20037;-81
2021/06/15 03:23:17;;;;;;;4.97;2.92;;;16.00;99.90;;;;;;5085573;28;20025;-82
2021/06/15 03:25:44;;;;;;;5.57;3.42;;;16.00;99.90;;;;;;5069129;28;20028;-80
2021/06/15 03:28:24;;;;;;;8.73;4.60;;;16.00;99.90;;;;;;5069165;28;20067;-81
2021/06/15 03:30:52;;;;;;;9.18;4.38;;;16.00;99.90;;;;;;5069043;28;20031;-82
2021/06/15 03:33:20;;;;;;;8.25;5.35;;;15.80;99.90;;;;;;5068652;28;20052;-81
2021/06/15 03:35:54;;;;;;;7.55;4.53;;;15.80;99.90;;;;;;5068959;28;20025;-80
2021/06/15 03:38:24;;;;;;;7.93;4.80;;;15.90;99.90;;;;;;5068537;28;20043;-81
2021/06/15 03:40:52;;;;;;;5.75;3.85;;;15.90;99.90;;;;;;5085478;28;20036;-82
2021/06/15 03:43:20;;;;;;;8.18;3.78;;;15.90;99.90;;;;;;5085172;28;20036;-81
2021/06/15 03:45:54;;;;;;;7.53;3.42;;;15.90;99.90;;;;;;5086386;28;20085;-82
2021/06/15 03:48:21;;;;;;;5.88;2.50;;;15.90;99.90;;;;;;5086110;28;20048;-81
2021/06/15 03:50:50;;;;;;;5.65;2.28;;;15.80;99.90;;;;;;5068421;28;20028;-81
2021/06/15 03:53:17;;;;;;;7.03;3.23;;;15.80;99.90;;;;;;5086483;28;20052;-81
2021/06/15 03:55:45;;;;;;;7.07;3.13;;;15.90;99.90;;;;;;5068411;28;20025;-81
2021/06/15 03:58:12;;;;;;;6.57;3.13;;;15.90;99.90;;;;;;5084663;28;20028;-82
2021/06/15 04:00:44;;;;;;;8.90;2.70;;;15.80;99.90;;;;;;5084461;28;20472;-82
2021/06/15 04:03:13;;;;;;;6.35;2.78;;;15.90;99.90;;;;;;5067634;28;20037;-81
2021/06/15 04:05:40;;;;;;;5.10;1.95;;;16.00;99.90;;;;;;5085583;28;20028;-80
2021/06/15 04:08:07;;;;;;;5.03;1.50;;;16.10;99.90;;;;;;5083874;28;20064;-80
2021/06/15 04:10:35;;;;;;;3.42;2.25;;;16.10;99.90;;;;;;5084262;28;20024;-80
2021/06/15 04:13:02;;;;;;;3.55;1.35;;;16.00;99.90;;;;;;5084176;28;20033;-81
2021/06/15 04:15:29;;;;;;;5.53;2.58;;;16.10;99.90;;;;;;5067236;28;20029;-80
2021/06/15 04:17:59;;;;;;;4.28;1.40;;;16.00;99.90;;;;;;5085165;28;20556;-81
2021/06/15 04:20:31;;;;;;;3.60;0.80;;;16.10;99.90;;;;;;5084150;28;20170;-81
2021/06/15 04:22:59;;;;;;;5.40;2.15;;;16.00;99.90;;;;;;5084001;28;20032;-80
2021/06/15 04:25:29;;;;;;;6.25;2.25;;;16.00;99.90;;;;;;5083693;28;20031;-80
2021/06/15 04:27:55;;;;;;;3.15;1.73;;;16.00;99.90;;;;;;5083825;28;20068;-81
2021/06/15 04:30:21;;;;;;;3.80;1.38;;;16.10;99.90;;;;;;5061590;28;20100;-81
2021/06/15 04:32:55;;;;;;;6.13;2.05;;;16.00;99.90;;;;;;5072355;28;20040;-81
2021/06/15 04:35:35;;;;;;;6.75;2.28;;;16.00;99.90;;;;;;5055651;28;20033;-81
2021/06/15 04:38:06;;;;;;;5.30;1.45;;;16.00;99.90;;;;;;5063049;28;20039;-80
2021/06/15 04:40:38;;;;;;;3.00;1.23;;;16.10;99.90;;;;;;5085313;28;20112;-80
2021/06/15 04:43:38;;;;;;;3.13;0.98;;;16.20;99.90;;;;;;5083829;28;20059;-80
2021/06/15 04:46:25;;;;;;;3.63;1.60;;;16.20;99.90;;;;;;5066551;28;20047;-81
2021/06/15 04:49:08;;;;;;;2.67;1.10;;;16.20;99.90;;;;;;5073987;28;20091;-80
2021/06/15 04:51:35;;;;;;;4.38;0.77;;;16.30;99.90;;;;;;5063482;28;20028;-81
2021/06/15 04:54:03;;;;;;;4.00;1.20;;;16.40;99.90;;;;;;5064925;28;20073;-81
2021/06/15 04:56:30;;;;;;;4.07;1.73;;;16.30;99.90;;;;;;5046774;28;20029;-80
2021/06/15 04:59:03;;;;;;;3.47;1.33;;;16.20;99.90;;;;;;5046544;28;20187;-80
2021/06/15 05:01:30;;;;;;;3.90;1.25;;;16.20;99.90;;;;;;5065132;28;20028;-81
2021/06/15 05:03:55;;;;;;;8.25;1.00;;;16.10;99.90;;;;;;5083560;28;20388;-81
2021/06/15 05:06:22;;;;;;;5.70;1.25;;;16.10;99.90;;;;;;5077724;28;20060;-81
2021/06/15 05:08:58;;;;;;;3.08;0.80;;;16.00;99.90;;;;;;5083023;28;20533;-81
2021/06/15 05:11:26;;;;;;;4.20;0.60;;;16.10;99.90;;;;;;5043054;28;20099;-81
2021/06/15 05:13:56;;;;;;;2.85;0.75;;;16.20;99.90;;;;;;5069735;28;20047;-82
2021/06/15 05:16:25;;;;;;;5.97;1.10;;;16.10;99.90;;;;;;5058081;28;20033;-81
2021/06/15 05:18:51;;;;;;;3.33;0.80;;;16.10;99.90;;;;;;5047814;28;20036;-81
2021/06/15 05:21:22;;;;;;;2.65;0.82;;;16.10;99.90;;;;;;5062057;28;20056;-81
2021/06/15 05:23:57;;;;;;;4.40;0.77;;;16.20;99.90;;;;;;5063010;28;20119;-81
2021/06/15 05:26:24;;;;;;;2.58;0.80;;;16.20;99.90;;;;;;5079752;28;20036;-82
2021/06/15 05:28:51;;;;;;;3.75;1.10;;;16.10;99.90;;;;;;5080390;28;20033;-81
2021/06/15 05:31:16;;;;;;;2.85;0.60;;;16.10;99.90;;;;;;5083091;28;20056;-81
2021/06/15 05:33:42;;;;;;;5.75;1.17;;;16.30;99.90;;;;;;5084325;28;20021;-81
2021/06/15 05:36:08;;;;;;;3.00;0.60;;;16.20;99.90;;;;;;5066109;28;20431;-81
2021/06/15 05:38:36;;;;;;;6.28;1.10;;;16.30;99.90;;;;;;5086289;28;20029;-81
2021/06/15 05:41:01;;;;;;;3.15;0.85;;;16.30;99.90;;;;;;5088270;28;20080;-81
2021/06/15 05:43:27;;;;;;;3.70;0.98;;;16.30;99.90;;;;;;5086646;28;20037;-81
2021/06/15 05:45:53;;;;;;;5.07;0.80;;;16.30;99.90;;;;;;5069742;28;20043;-80
2021/06/15 05:48:18;;;;;;;5.20;0.75;;;16.40;99.90;;;;;;5087505;28;20488;-81
2021/06/15 05:50:44;;;;;;;2.63;1.25;;;16.50;99.90;;;;;;5086128;28;20035;-79
2021/06/15 05:53:10;;;;;;;3.22;0.60;;;16.60;99.90;;;;;;5069519;28;20086;-80
2021/06/15 05:55:39;;;;;;;2.90;0.60;;;16.90;99.90;;;;;;5069714;28;20035;-81
2021/06/15 05:58:04;;;;;;;2.72;0.52;;;17.00;99.90;;;;;;5086514;28;20058;-81
2021/06/15 06:00:30;;;;;;;3.92;0.80;;;16.90;99.90;;;;;;5086042;28;20039;-80
2021/06/15 06:02:56;;;;;;;4.80;1.10;;;17.10;99.90;;;;;;5069835;28;20039;-80
2021/06/15 06:08:07;;;;;;;5.78;0.85;;;16.90;99.90;;;;;;5086161;28;20481;-81
2021/06/15 06:10:35;;;;;;;6.43;0.63;;;17.10;99.90;;;;;;5066303;28;20088;-80
2021/06/15 06:13:01;;;;;;;7.20;1.00;;;17.40;99.90;;;;;;5067740;28;20097;-81
2021/06/15 06:15:27;;;;;;;2.58;0.50;;;17.70;99.90;;;;;;5067195;28;20032;-81
2021/06/15 06:17:54;;;;;;;2.97;0.60;;;18.10;99.90;;;;;;5065673;28;20123;-81
2021/06/15 06:20:19;;;;;;;4.25;1.35;;;17.70;99.90;;;;;;5066213;28;20040;-81
2021/06/15 06:22:45;;;;;;;4.47;0.88;;;17.80;99.90;;;;;;5067436;28;20025;-81
2021/06/15 06:25:13;;;;;;;4.63;0.50;;;18.00;99.90;;;;;;5067394;28;20029;-81
2021/06/15 06:27:40;;;;;;;5.45;0.60;;;18.20;99.90;;;;;;5065637;28;20103;-82
2021/06/15 06:30:07;;;;;;;3.97;0.60;;;17.70;99.90;;;;;;5049289;28;20040;-81
2021/06/15 06:32:33;;;;;;;4.65;0.75;;;17.80;99.90;;;;;;5066159;28;20036;-82
2021/06/15 06:35:01;;;;;;;5.22;0.50;;;18.10;99.90;;;;;;5065821;28;20055;-82
2021/06/15 06:37:28;;;;;;;3.80;0.60;;;17.70;99.90;;;;;;5049068;28;20029;-81
2021/06/15 06:39:53;;;;;;;2.97;0.60;;;17.60;99.90;;;;;;5067139;28;20029;-79
2021/06/15 06:42:19;;;;;;;3.53;0.50;;;17.80;99.90;;;;;;5066043;28;20489;-81
2021/06/15 06:44:45;;;;;;;1.98;0.40;;;17.70;99.90;;;;;;5065878;28;20064;-82
2021/06/15 06:47:10;;;;;;;2.08;0.50;;;17.70;99.90;;;;;;5065098;28;20021;-82
2021/06/15 06:49:36;;;;;;;5.80;0.75;;;17.60;99.90;;;;;;5048733;28;20045;-81
2021/06/15 06:52:02;;;;;;;2.60;0.35;;;17.70;99.90;;;;;;5048436;28;20428;-82
2021/06/15 06:54:28;;;;;;;3.53;0.30;;;18.10;99.90;;;;;;5064638;28;20055;-82
2021/06/15 06:56:55;;;;;;;2.90;0.30;;;18.20;99.90;;;;;;5064674;28;20073;-81
2021/06/15 06:59:20;;;;;;;3.20;0.40;;;17.80;99.90;;;;;;5048778;28;20044;-81
2021/06/15 07:01:46;;;;;;;2.38;0.40;;;17.60;99.90;;;;;;5068199;28;20025;-81
2021/06/15 07:04:13;;;;;;;2.13;0.38;;;17.40;99.90;;;;;;5068635;28;20089;-81
2021/06/15 07:06:39;;;;;;;4.25;0.50;;;17.50;99.90;;;;;;5068634;28;20061;-82
2021/06/15 07:09:05;;;;;;;3.50;0.30;;;17.40;99.90;;;;;;5085064;28;20041;-81
2021/06/15 07:11:31;;;;;;;3.08;0.30;;;17.30;99.90;;;;;;5085339;28;20029;-82
2021/06/15 07:13:56;;;;;;;5.35;0.35;;;17.40;99.90;;;;;;5085235;28;20064;-81
2021/06/15 07:16:22;;;;;;;2.53;0.30;;;17.40;99.90;;;;;;5068366;28;20055;-81
2021/06/15 07:18:48;;;;;;;2.88;0.38;;;17.50;99.90;;;;;;5085411;28;20058;-81
2021/06/15 07:21:14;;;;;;;3.17;0.30;;;17.30;99.90;;;;;;5068420;28;20028;-81
2021/06/15 07:23:40;;;;;;;3.67;0.30;;;17.50;99.90;;;;;;5085245;28;20040;-81
2021/06/15 07:26:06;;;;;;;1.58;0.20;;;18.00;99.90;;;;;;5086309;28;20402;-82
2021/06/15 07:28:32;;;;;;;4.43;0.30;;;18.30;99.90;;;;;;5084560;28;20044;-82
2021/06/15 07:30:58;;;;;;;1.52;0.20;;;18.30;99.90;;;;;;5084774;28;20090;-81
2021/06/15 07:33:24;;;;;;;2.67;0.30;;;18.30;99.90;;;;;;5086150;28;20032;-81
2021/06/15 07:35:49;;;;;;;2.25;0.20;;;18.20;99.90;;;;;;5084437;28;20029;-81
2021/06/15 07:38:15;;;;;;;1.92;0.20;;;18.40;99.90;;;;;;5084497;28;20115;-80
2021/06/15 07:40:40;;;;;;;2.50;0.30;;;18.50;99.90;;;;;;5085974;28;20032;-78
2021/06/15 07:43:06;;;;;;;4.38;0.28;;;18.80;99.90;;;;;;5084664;28;20037;-81
2021/06/15 07:45:52;;;;;;;3.17;0.30;;;19.10;99.90;;;;;;5084222;28;20472;-81
2021/06/15 07:48:18;;;;;;;4.22;0.40;;;19.10;99.90;;;;;;5026152;28;20132;-81
2021/06/15 07:50:43;;;;;;;4.63;0.40;;;19.10;99.90;;;;;;5026632;28;20049;-81
2021/06/15 07:53:09;;;;;;;2.90;0.38;;;18.60;99.90;;;;;;5026791;28;20041;-81
2021/06/15 07:55:34;;;;;;;2.35;0.30;;;18.40;99.90;;;;;;5042888;28;20068;-81
2021/06/15 07:58:00;;;;;;;4.20;0.40;;;18.50;99.90;;;;;;5010076;28;20444;-81
2021/06/15 08:00:26;;;;;;;8.70;1.00;;;18.30;99.90;;;;;;5025779;28;20041;-81
2021/06/15 08:02:51;;;;;;;1.20;0.20;;;18.10;99.90;;;;;;5026279;28;20075;-82
2021/06/15 08:05:18;;;;;;;1.40;0.20;;;18.40;99.90;;;;;;5010393;28;20088;-82
2021/06/15 08:07:48;;;;;;;3.50;0.30;;;18.80;99.90;;;;;;5026274;28;20048;-82
2021/06/15 08:10:16;;;;;;;1.73;0.20;;;19.20;99.90;;;;;;5026406;28;20038;-83
2021/06/15 08:12:42;;;;;;;1.30;0.10;;;19.30;99.90;;;;;;5026559;28;20567;-82
2021/06/15 08:15:08;;;;;;;2.72;0.20;;;19.60;99.90;;;;;;5026372;28;20049;-82
2021/06/15 08:17:33;;;;;;;1.13;0.13;;;19.80;99.90;;;;;;5009572;28;20029;-83
2021/06/15 08:19:59;;;;;;;3.63;0.30;;;20.00;99.90;;;;;;5009986;28;20111;-82
2021/06/15 08:22:25;;;;;;;1.95;0.38;;;19.70;99.90;;;;;;5009877;28;20052;-82
2021/06/15 08:24:57;;;;;;;2.33;0.22;;;19.30;99.90;;;;;;5024088;28;20149;-82
2021/06/15 08:27:23;;;;;;;4.30;0.30;;;19.00;99.90;;;;;;5083532;28;20035;-82
2021/06/15 08:29:49;;;;;;;2.92;0.20;;;19.50;99.90;;;;;;5083935;28;20472;-83
2021/06/15 08:32:15;;;;;;;2.17;0.20;;;19.20;99.90;;;;;;5083967;28;20458;-83
2021/06/15 08:34:41;;;;;;;3.70;0.63;;;19.80;99.90;;;;;;5083784;28;20038;-81
2021/06/15 08:37:07;;;;;;;2.90;0.20;;;20.20;99.90;;;;;;5083664;28;20044;-82
2021/06/15 08:39:33;;;;;;;3.17;0.40;;;20.50;99.90;;;;;;5083767;28;20025;-82
2021/06/15 08:41:59;;;;;;;1.88;0.20;;;20.90;99.90;;;;;;5084984;28;20608;-82
2021/06/15 08:44:24;;;;;;;4.38;0.28;;;20.70;99.90;;;;;;5083540;28;20039;-82
2021/06/15 08:46:50;;;;;;;2.65;0.50;;;20.00;99.90;;;;;;5081218;28;20040;-82
2021/06/15 08:49:16;;;;;;;2.25;0.50;;;19.70;99.90;;;;;;5084999;28;20051;-82
2021/06/15 08:51:42;;;;;;;3.63;0.30;;;19.70;99.90;;;;;;5084973;28;20029;-83
2021/06/15 08:54:11;;;;;;;3.53;0.30;;;20.00;99.90;;;;;;5083778;28;20036;-83
2021/06/15 08:56:37;;;;;;;5.20;0.30;;;19.90;99.90;;;;;;5066844;28;20031;-82
2021/06/15 08:59:29;;;;;;;4.55;0.50;;;20.10;99.90;;;;;;5083848;28;20028;-82
2021/06/15 09:01:57;;;;;;;3.05;0.20;;;19.80;99.90;;;;;;5066848;28;20043;-81
2021/06/15 09:04:23;;;;;;;2.63;0.30;;;20.30;99.90;;;;;;5083695;28;20028;-82
2021/06/15 09:06:49;;;;;;;1.73;0.20;;;20.50;99.90;;;;;;5066697;28;20043;-83
2021/06/15 09:09:16;;;;;;;1.50;0.20;;;21.10;99.90;;;;;;5066776;28;20060;-82
2021/06/15 09:11:53;;;;;;;3.30;0.20;;;21.30;99.90;;;;;;5086478;28;20167;-83
2021/06/15 09:14:51;;;;;;;3.05;0.20;;;21.00;99.90;;;;;;5087709;28;20033;-83
2021/06/15 09:17:26;;;;;;;3.35;0.40;;;21.20;99.90;;;;;;5070621;28;20051;-82
2021/06/15 09:19:52;;;;;;;3.08;0.30;;;20.70;99.90;;;;;;5087582;28;20028;-83
2021/06/15 09:22:33;;;;;;;1.88;0.13;;;20.60;99.90;;;;;;5087403;28;20036;-83
2021/06/15 09:25:04;;;;;;;2.25;0.10;;;21.20;99.90;;;;;;5087412;28;20036;-83
2021/06/15 09:27:36;;;;;;;1.88;0.20;;;21.60;99.90;;;;;;5086917;28;20039;-83
2021/06/15 09:30:05;;;;;;;2.63;0.20;;;21.90;99.90;;;;;;5087249;28;20036;-83
2021/06/15 09:32:38;;;;;;;2.97;0.20;;;22.20;99.90;;;;;;5070466;28;20484;-82
2021/06/15 09:35:12;;;;;;;1.30;0.20;;;22.60;99.90;;;;;;5087268;28;20033;-82
2021/06/15 09:37:40;;;;;;;1.55;0.20;;;22.60;99.90;;;;;;5070256;28;20395;-82
2021/06/15 09:40:18;;;;;;;2.88;0.20;;;22.60;99.90;;;;;;5070436;28;20028;-83
2021/06/15 09:42:54;;;;;;;4.28;0.50;;;22.40;99.90;;;;;;5088186;28;20036;-83
2021/06/15 09:45:43;;;;;;;4.60;0.20;;;21.70;99.90;;;;;;5070304;28;20453;-83
2021/06/15 09:48:25;;;;;;;1.48;0.30;;;21.60;99.90;;;;;;5065087;28;20497;-83
2021/06/15 09:50:53;;;;;;;3.10;0.22;;;22.40;99.90;;;;;;5048879;28;20041;-82
2021/06/15 09:53:35;;;;;;;1.67;0.20;;;21.70;99.90;;;;;;5065501;28;20047;-82
2021/06/15 09:56:06;;;;;;;1.30;0.20;;;21.60;99.90;;;;;;5032078;28;20028;-83
2021/06/15 09:58:43;;;;;;;1.20;0.20;;;22.00;99.90;;;;;;5048455;28;20049;-82
2021/06/15 10:01:10;;;;;;;4.18;0.22;;;22.00;99.90;;;;;;5048750;28;20037;-82
2021/06/15 10:03:36;;;;;;;2.33;0.28;;;21.80;99.90;;;;;;5048466;28;20029;-82
2021/06/15 10:06:03;;;;;;;1.80;0.20;;;22.10;99.90;;;;;;5032056;28;20037;-82
2021/06/15 10:08:45;;;;;;;2.72;0.60;;;22.40;99.90;;;;;;5048028;28;20051;-82
2021/06/15 10:11:11;;;;;;;4.55;0.20;;;22.40;99.90;;;;;;5065499;28;20040;-83
2021/06/15 10:13:38;;;;;;;3.67;0.20;;;22.10;99.90;;;;;;5048271;28;20400;-82
2021/06/15 10:16:04;;;;;;;3.00;0.15;;;21.90;99.90;;;;;;5031890;28;20433;-82
2021/06/15 10:18:32;;;;;;;2.35;0.17;;;21.90;99.90;;;;;;5047947;28;20151;-82
2021/06/15 10:20:57;;;;;;;4.07;0.47;;;22.00;99.90;;;;;;5048344;28;20029;-82
2021/06/15 10:23:23;;;;;;;2.92;0.20;;;22.50;99.90;;;;;;5047589;28;20040;-82
2021/06/15 10:25:49;;;;;;;2.55;0.20;;;22.00;99.90;;;;;;5060572;28;20040;-83
2021/06/15 10:28:15;;;;;;;1.30;0.20;;;21.80;99.90;;;;;;5087165;28;20048;-82
2021/06/15 10:30:42;;;;;;;2.58;0.20;;;22.20;99.90;;;;;;5069670;28;20115;-82
2021/06/15 10:33:22;;;;;;;4.63;0.20;;;22.10;99.90;;;;;;5069412;28;20032;-82
2021/06/15 10:35:50;;;;;;;3.40;0.20;;;22.30;99.90;;;;;;5069425;28;20368;-82
2021/06/15 10:38:42;;;;;;;0.55;0.10;;;23.10;99.90;;;;;;5085948;28;20032;-83
2021/06/15 10:41:19;;;;;;;1.20;0.10;;;23.40;99.90;;;;;;5069262;28;20120;-83
2021/06/15 10:43:46;;;;;;;0.90;0.10;;;23.50;99.90;;;;;;5069059;28;20071;-83
2021/06/15 10:46:12;;;;;;;0.50;0.00;;;23.80;99.90;;;;;;5085632;28;20132;-83
2021/06/15 10:48:41;;;;;;;2.20;0.22;;;24.00;99.90;;;;;;5085366;28;20048;-83
2021/06/15 10:51:53;;;;;;;2.05;0.20;;;22.90;99.90;;;;;;5068910;28;20101;-83
2021/06/15 10:54:38;;;;;;;4.13;0.30;;;23.20;99.90;;;;;;5063074;28;20021;-83
2021/06/15 10:57:24;;;;;;;1.65;0.10;;;22.70;99.90;;;;;;5068547;28;20439;-82
2021/06/15 11:00:26;;;;;;;3.28;0.10;;;23.40;99.90;;;;;;5068578;28;20043;-83
2021/06/15 11:03:17;;;;;;;1.38;0.20;;;23.50;99.90;;;;;;5066520;28;20110;-83
2021/06/15 11:06:02;;;;;;;0.98;0.10;;;23.50;99.90;;;;;;5085377;28;20032;-84
2021/06/15 11:08:31;;;;;;;3.10;0.20;;;23.40;99.90;;;;;;5085046;28;20482;-83
2021/06/15 11:11:18;;;;;;;4.03;0.10;;;22.80;99.90;;;;;;5068625;28;20035;-83
2021/06/15 11:13:46;;;;;;;2.08;0.20;;;22.90;99.90;;;;;;5086483;28;20115;-83
2021/06/15 11:16:23;;;;;;;0.90;0.05;;;22.70;99.90;;;;;;5085032;28;20089;-84
2021/06/15 11:19:11;;;;;;;2.22;0.20;;;23.20;99.90;;;;;;5085127;28;20032;-82
2021/06/15 11:22:18;;;;;;;2.20;0.20;;;22.10;99.90;;;;;;5084895;28;20087;-81
2021/06/15 11:24:50;;;;;;;0.73;0.08;;;22.70;99.90;;;;;;5027084;28;20042;-82
2021/06/15 11:27:33;;;;;;;2.10;0.10;;;22.70;99.90;;;;;;5010629;28;20049;-81
2021/06/15 11:30:11;;;;;;;1.35;0.10;;;22.30;99.90;;;;;;5010381;28;20083;-82
2021/06/15 11:32:37;;;;;;;0.75;0.10;;;22.70;99.90;;;;;;5027299;28;20442;-82
2021/06/15 11:35:03;;;;;;;2.65;0.10;;;22.90;99.90;;;;;;5027022;28;20037;-81
2021/06/15 11:37:36;;;;;;;2.58;0.30;;;22.40;99.90;;;;;;5024051;28;20033;-82
2021/06/15 11:40:15;;;;;;;2.03;0.10;;;22.60;99.90;;;;;;5043369;28;20116;-81
2021/06/15 11:42:42;;;;;;;2.13;0.13;;;22.80;99.90;;;;;;5027132;28;20188;-81
2021/06/15 11:45:20;;;;;;;1.77;0.10;;;23.30;98.70;;;;;;5026441;28;20033;-82
2021/06/15 11:47:52;;;;;;;2.75;0.10;;;23.30;99.50;;;;;;5026151;28;20133;-82
2021/06/15 11:50:18;;;;;;;8.50;0.50;;;23.10;99.00;;;;;;5026658;28;20033;-82
2021/06/15 11:52:53;;;;;;;2.75;0.20;;;23.00;99.90;;;;;;5026296;28;20141;-83
2021/06/15 11:55:23;;;;;;;1.90;0.20;;;23.00;99.90;;;;;;5026547;28;20029;-81
2021/06/15 11:57:56;;;;;;;5.28;0.50;;;23.20;99.90;;;;;;5050310;28;20042;-81
2021/06/15 12:00:22;;;;;;;7.65;1.13;;;23.20;99.90;;;;;;5084025;28;20032;-83
2021/06/15 12:02:47;;;;;;;3.00;0.20;;;23.20;99.90;;;;;;5085355;28;20039;-83
2021/06/15 12:05:16;;;;;;;1.52;0.10;;;23.80;99.60;;;;;;5085332;28;20040;-83
2021/06/15 12:07:51;;;;;;;2.80;0.10;;;23.70;98.00;;;;;;5083533;28;20450;-82
2021/06/15 12:10:17;;;;;;;1.00;0.10;;;24.50;97.90;;;;;;5085151;28;20047;-81
2021/06/15 12:13:08;;;;;;;2.00;0.10;;;24.80;96.60;;;;;;5083915;28;20043;-82
2021/06/15 12:15:42;;;;;;;2.42;0.20;;;24.70;96.10;;;;;;5059769;28;20051;-81
2021/06/15 12:18:34;;;;;;;2.13;0.20;;;24.40;96.70;;;;;;5083729;28;20064;-82
2021/06/15 12:21:21;;;;;;;2.10;0.10;;;23.90;98.60;;;;;;5066630;28;20052;-82
2021/06/15 12:23:58;;;;;;;0.88;0.10;;;23.80;97.00;;;;;;5083918;28;20122;-82
2021/06/15 12:26:26;;;;;;;1.67;0.10;;;23.70;96.10;;;;;;5084673;28;20028;-81
2021/06/15 12:28:59;;;;;;;0.75;0.10;;;23.60;97.40;;;;;;5083784;28;20094;-81
2021/06/15 12:31:33;;;;;;;1.05;0.17;;;24.30;97.30;;;;;;5067000;28;20086;-81
2021/06/15 12:34:01;;;;;;;2.15;0.15;;;25.10;96.90;;;;;;5067106;28;20081;-82
2021/06/15 12:36:30;;;;;;;1.55;0.10;;;24.20;96.50;;;;;;5083344;28;20039;-81
2021/06/15 12:39:19;;;;;;;1.98;0.10;;;24.40;96.30;;;;;;5066485;28;20412;-82
2021/06/15 12:41:48;;;;;;;2.78;0.20;;;23.90;97.00;;;;;;5083210;28;20037;-81
2021/06/15 12:44:14;;;;;;;1.38;0.10;;;24.30;97.50;;;;;;5066990;28;20036;-82
2021/06/15 12:46:41;;;;;;;0.80;0.13;;;25.00;97.10;;;;;;5061603;22;20041;-84
2021/06/15 12:49:19;;;;;;;1.95;0.10;;;25.10;97.80;;;;;;5043777;28;20477;-84
2021/06/15 12:51:49;;;;;;;4.00;0.20;;;25.10;97.50;;;;;;5045242;28;20026;-82
2021/06/15 12:54:19;;;;;;;2.40;0.20;;;25.30;96.70;;;;;;5044024;28;20033;-82
2021/06/15 12:56:55;;;;;;;2.55;0.20;;;24.20;97.00;;;;;;5043625;28;20037;-81
2021/06/15 12:59:21;;;;;;;6.45;0.25;;;23.80;96.10;;;;;;5045279;28;20029;-82
2021/06/15 13:01:47;;;;;;;5.43;0.70;;;24.20;97.30;;;;;;5043744;28;20040;-84
2021/06/15 13:04:31;;;;;;;6.57;1.27;;;24.30;97.40;;;;;;5027586;28;20029;-82
2021/06/15 13:07:00;;;;;;;3.45;0.40;;;24.50;97.30;;;;;;5043678;28;20084;-81
2021/06/15 13:09:27;;;;;;;1.02;0.10;;;24.10;97.20;;;;;;5052709;28;20051;-83